»·PEaware :: UAL2263 KSFO-KLAX

UAL2263 :: KSFO-KLAX

FLIGHT INFORMATION

Flight Status: Arrived
Operator:
United Airlines
More flights by this operator :: More flights under this callsign
Pilot: Alfredo R. (12181)
Aircraft: BOEING 737-800
(B738)
More flights by this aircraft type
Origin: KSFO San Francisco Intl
United States
Destination: KLAX Los Angeles Intl
United States
More flights between these airports :: More routes between these airports
Route: SSTIK4 EBAYE BURGL IRNMN2
File this flight plan on PilotEdge
Remarks:
Altitude:
(Current/Filed)
37,000ft
Speed:
(Current/Filed)
425kts
Departed: 10-Dec-18 07:18 PM
Arrived: 10-Dec-18 08:20 PM
Distance/Time
Traveled:
293nm/1:02
Distance/Time
To Go:
Arrived

Flight Plot

Page will automatically refresh every two minutes.

Flight plan parsing failed; only flown route is shown


Map Options




Map Legend


Flown Route
Filed Route
Departure Airport
Arrival Airport
Navaid (VOR, NDB)
Fix

Horizontal Profiles

Position Reports

Time Latitude Longitude Heading Altitude Ground
Speed
10-Dec-18 18:46 37.620174 -122.389398 27 30ft 0kts
10-Dec-18 18:47 37.620174 -122.389398 27 30ft 0kts
10-Dec-18 18:48 37.620174 -122.389398 27 30ft 0kts
10-Dec-18 18:49 37.620174 -122.389398 27 30ft 0kts
10-Dec-18 18:50 37.620174 -122.389398 27 30ft 0kts
10-Dec-18 18:51 37.620174 -122.389398 27 30ft 0kts
10-Dec-18 18:52 37.620174 -122.389398 27 30ft 0kts
10-Dec-18 18:53 37.620174 -122.389398 27 30ft 0kts
10-Dec-18 18:54 37.620174 -122.389398 27 30ft 0kts
10-Dec-18 18:55 37.620174 -122.389398 27 30ft 0kts
10-Dec-18 18:56 37.620174 -122.389398 27 30ft 0kts
10-Dec-18 18:57 37.620174 -122.389399 27 30ft 0kts
10-Dec-18 18:58 37.620174 -122.389399 27 30ft 0kts
10-Dec-18 18:59 37.619922 -122.389557 26 31ft 2kts
10-Dec-18 19:00 37.619408 -122.389718 325 30ft 2kts
10-Dec-18 19:00 37.619231 -122.389359 299 31ft 0kts
10-Dec-18 19:02 37.619998 -122.391177 297 31ft 6kts
10-Dec-18 19:03 37.620148 -122.391544 297 30ft 0kts
10-Dec-18 19:03 37.620148 -122.391544 297 30ft 0kts
10-Dec-18 19:04 37.620148 -122.391544 297 30ft 0kts
10-Dec-18 19:05 37.620160 -122.391574 297 30ft 0kts
10-Dec-18 19:07 37.621393 -122.391618 27 30ft 8kts
10-Dec-18 19:07 37.622619 -122.389543 77 29ft 9kts
10-Dec-18 19:08 37.621438 -122.386263 117 30ft 14kts
10-Dec-18 19:09 37.619931 -122.382660 118 30ft 14kts
10-Dec-18 19:10 37.617986 -122.379573 162 30ft 13kts
10-Dec-18 19:11 37.614445 -122.381080 208 30ft 15kts
10-Dec-18 19:12 37.611167 -122.383241 207 30ft 10kts
10-Dec-18 19:13 37.608687 -122.384361 121 30ft 7kts
10-Dec-18 19:14 37.608470 -122.383859 117 30ft 0kts
10-Dec-18 19:15 37.608470 -122.383859 117 30ft 0kts
10-Dec-18 19:16 37.608274 -122.383387 117 30ft 8kts
10-Dec-18 19:17 37.615756 -122.377702 27 26ft 106kts
10-Dec-18 19:18 37.654766 -122.358538 356 1514ft 183kts
10-Dec-18 19:19 37.699194 -122.383564 281 3356ft 218kts
10-Dec-18 19:20 37.651309 -122.423335 201 5650ft 256kts
10-Dec-18 19:21 37.584222 -122.450186 191 8153ft 283kts
10-Dec-18 19:22 37.506667 -122.467708 191 10735ft 303kts
10-Dec-18 19:23 37.441610 -122.416938 117 12482ft 342kts
10-Dec-18 19:24 37.382286 -122.328627 130 15002ft 363kts
10-Dec-18 19:25 37.314178 -122.236112 129 17361ft 377kts
10-Dec-18 19:26 37.245139 -122.142696 129 19476ft 388kts
10-Dec-18 19:27 37.171776 -122.043699 129 21462ft 399kts
10-Dec-18 19:28 37.095320 -121.940908 128 23266ft 410kts
10-Dec-18 19:29 37.016985 -121.835950 129 24916ft 419kts
10-Dec-18 19:30 36.936421 -121.728315 130 26462ft 428kts
10-Dec-18 19:31 36.855130 -121.620005 132 27928ft 434kts
10-Dec-18 19:32 36.772688 -121.510911 133 29147ft 442kts
10-Dec-18 19:33 36.690191 -121.401842 134 30177ft 452kts
10-Dec-18 19:34 36.604122 -121.288333 136 31529ft 452kts
10-Dec-18 19:35 36.518008 -121.175182 137 32796ft 451kts
10-Dec-18 19:36 36.432929 -121.063813 137 34108ft 446kts
10-Dec-18 19:37 36.351913 -120.947790 134 35212ft 445kts
10-Dec-18 19:38 36.271405 -120.832155 134 36155ft 445kts
10-Dec-18 19:39 36.191880 -120.718388 136 37000ft 445kts
10-Dec-18 19:40 36.109893 -120.601691 136 37206ft 458kts
10-Dec-18 19:41 36.026486 -120.483398 136 37202ft 460kts
10-Dec-18 19:42 35.942679 -120.364898 136 37209ft 461kts
10-Dec-18 19:43 35.855924 -120.251429 149 37211ft 451kts
10-Dec-18 19:44 35.751981 -120.172352 155 37201ft 444kts
10-Dec-18 19:45 35.647633 -120.093740 155 37195ft 443kts
10-Dec-18 19:46 35.543672 -120.015358 155 37204ft 443kts
10-Dec-18 19:47 35.439089 -119.936724 155 37203ft 443kts
10-Dec-18 19:48 35.339054 -119.861725 155 37132ft 440kts
10-Dec-18 19:49 35.239556 -119.778793 149 37223ft 443kts
10-Dec-18 19:50 35.142981 -119.687902 151 37160ft 439kts
10-Dec-18 19:51 35.047779 -119.599172 150 34353ft 439kts
10-Dec-18 19:52 34.950407 -119.508843 149 30605ft 449kts
10-Dec-18 19:53 34.854532 -119.421408 150 29115ft 396kts
10-Dec-18 19:54 34.762794 -119.339877 150 28035ft 423kts
10-Dec-18 19:55 34.668473 -119.257017 150 24669ft 413kts
10-Dec-18 19:56 34.581870 -119.182057 150 22550ft 372kts
10-Dec-18 19:57 34.499354 -119.109630 150 20300ft 361kts
10-Dec-18 19:58 34.419755 -119.039400 150 18211ft 349kts
10-Dec-18 19:59 34.342606 -118.972688 150 16131ft 341kts
10-Dec-18 20:00 34.268321 -118.905562 148 14200ft 330kts
10-Dec-18 20:01 34.197689 -118.840819 148 12591ft 313kts
10-Dec-18 20:02 34.133391 -118.777081 141 11194ft 307kts
10-Dec-18 20:03 34.072614 -118.710430 142 8956ft 302kts
10-Dec-18 20:04 34.028407 -118.636794 104 7920ft 284kts
10-Dec-18 20:05 34.018466 -118.543559 99 7339ft 284kts
10-Dec-18 20:06 34.010815 -118.458182 90 6779ft 276kts
10-Dec-18 20:07 34.023654 -118.376649 77 6208ft 250kts
10-Dec-18 20:08 34.033599 -118.303052 83 5989ft 248kts
10-Dec-18 20:09 34.042599 -118.225977 82 5988ft 249kts
10-Dec-18 20:10 34.045797 -118.147476 91 5495ft 249kts
10-Dec-18 20:11 34.026902 -118.082058 160 4700ft 223kts
10-Dec-18 20:12 33.975025 -118.085287 228 3658ft 190kts
10-Dec-18 20:13 33.959303 -118.140621 261 3094ft 179kts
10-Dec-18 20:14 33.954722 -118.196361 271 2506ft 163kts
10-Dec-18 20:15 33.951068 -118.248996 265 1908ft 161kts
10-Dec-18 20:16 33.946118 -118.297835 264 1188ft 143kts
10-Dec-18 20:17 33.941600 -118.344758 264 911ft 146kts
10-Dec-18 20:18 33.936566 -118.391475 263 106ft 119kts
10-Dec-18 20:19 33.936156 -118.403362 287 119ft 9kts
10-Dec-18 20:20 33.936027 -118.406545 262 125ft 9kts
10-Dec-18 20:21 33.937255 -118.409029 353 126ft 6kts
10-Dec-18 20:22 33.937767 -118.408912 45 126ft 5kts

Navigation Log

Ident Type
Flight plan parsing failed, navigation log unavailable